LTCA

Elazığ Airport

Elazığ, Turkey
TAF LTCA 260140Z 2603/2612 VRB02KT CAVOK BECMG 2607/2609 SCT035 BKN100
Issued Valid From Valid To
Apr-26 @ 01:40 UTC
(2 hours ago)
Apr-26 @ 03:00 UTC
(46 minutes ago)
Apr-26 @ 12:00 UTC
(in 8 hours)
Apr-26 @ 03:00 to Apr-26 @ 07:00
TAF LTCA 260140Z 2603/2612 VRB02KT CAVOK
Wind Visibility Clouds Conditions
Variable at 2 knots 10,000+ meters
  • No significant clouds
Becoming Apr-26 @ 07:00 to Apr-26 @ 12:00
BECMG 2607/2609 SCT035 BKN100
Wind Visibility Clouds Conditions
Variable at 2 knots 10,000+ meters
  • Scattered at 3,500' AGL
  • Broken at 10,000' AGL
TAF LTCA 260140Z 2603/2612 VRB02KT CAVOK BECMG 2607/2609 SCT035 BKN100
Issued Apr-26 @ 01:40 UTC
(2 hours ago)
Valid From Apr-26 @ 03:00 UTC
(46 minutes ago)
Valid To Apr-26 @ 12:00 UTC
(in 8 hours)
Apr-26 @ 03:00 - Apr-26 @ 07:00
Wind Visibility
Variable at 2 knots 10,000+ meters
Clouds
  • No significant clouds
Conditions
Becoming Apr-26 @ 07:00 - Apr-26 @ 12:00
Wind Visibility
Variable at 2 knots 10,000+ meters
Clouds
  • Scattered at 3,500' AGL
  • Broken at 10,000' AGL
Conditions